createdAt,value
2023-02-04T00:00:04.076Z,5.38
2023-02-04T00:01:04.139Z,5.31
2023-02-04T00:02:04.143Z,5.31
2023-02-04T00:03:04.408Z,5.31
2023-02-04T00:04:04.222Z,5.31
2023-02-04T00:05:04.181Z,5.31
2023-02-04T00:06:04.303Z,5.31
2023-02-04T00:07:04.312Z,5.31
2023-02-04T00:08:04.236Z,5.31
2023-02-04T00:09:03.503Z,5.31
2023-02-04T00:10:03.501Z,5.38
2023-02-04T00:11:04.614Z,5.38
2023-02-04T00:12:03.433Z,5.38
2023-02-04T00:13:03.447Z,5.38
2023-02-04T00:14:04.464Z,5.38
2023-02-04T00:15:04.490Z,5.38
2023-02-04T00:16:03.622Z,5.38
2023-02-04T00:17:03.663Z,5.31
2023-02-04T00:18:03.640Z,5.31
2023-02-04T00:19:04.177Z,5.31
2023-02-04T00:20:04.229Z,5.31
2023-02-04T00:21:04.309Z,5.31
2023-02-04T00:22:04.224Z,5.31
2023-02-04T00:23:04.404Z,5.31
2023-02-04T00:24:04.388Z,5.31
2023-02-04T00:25:04.476Z,5.31
2023-02-04T00:26:04.386Z,5.31
2023-02-04T00:27:04.401Z,5.31
2023-02-04T00:28:04.539Z,5.31
2023-02-04T00:29:04.217Z,5.31
2023-02-04T00:30:04.222Z,5.31
2023-02-04T00:31:04.302Z,5.31
2023-02-04T00:32:04.472Z,5.25
2023-02-04T00:33:04.312Z,5.25
2023-02-04T00:34:04.481Z,5.31
2023-02-04T00:35:04.390Z,5.31
2023-02-04T00:36:04.463Z,5.31
2023-02-04T00:37:04.391Z,5.31
2023-02-04T00:38:04.401Z,5.31
2023-02-04T00:39:04.226Z,5.31
2023-02-04T00:40:04.271Z,5.31
2023-02-04T00:41:04.151Z,5.31
2023-02-04T00:42:04.149Z,5.31
2023-02-04T00:43:04.067Z,5.31
2023-02-04T00:44:04.077Z,5.31
2023-02-04T00:45:04.076Z,5.31
2023-02-04T00:46:04.036Z,5.31
2023-02-04T00:47:03.909Z,5.31
2023-02-04T00:48:03.982Z,5.31
2023-02-04T00:49:03.908Z,5.31
2023-02-04T00:50:03.910Z,5.25
2023-02-04T00:51:03.898Z,5.25
2023-02-04T00:52:03.907Z,5.25
2023-02-04T00:53:03.899Z,5.25
2023-02-04T00:54:03.905Z,5.25
2023-02-04T00:55:03.944Z,5.25
2023-02-04T00:56:03.985Z,5.25
2023-02-04T00:57:03.906Z,5.25
2023-02-04T00:58:03.987Z,5.19
2023-02-04T00:59:04.150Z,5.25
2023-02-04T01:00:04.178Z,5.25
2023-02-04T01:01:04.246Z,5.25
2023-02-04T01:02:04.233Z,5.25
2023-02-04T01:03:04.411Z,5.25
2023-02-04T01:04:04.239Z,5.19
2023-02-04T01:05:04.222Z,5.19
2023-02-04T01:06:04.147Z,5.19
2023-02-04T01:07:04.277Z,5.12
2023-02-04T01:08:04.243Z,5.12
2023-02-04T01:09:04.157Z,5.12
2023-02-04T01:10:04.155Z,5.12
2023-02-04T01:11:03.530Z,5.12
2023-02-04T01:12:03.588Z,5.12
2023-02-04T01:13:03.527Z,5.12
2023-02-04T01:14:04.468Z,5.06
2023-02-04T01:15:04.405Z,5.06
2023-02-04T01:16:04.457Z,5.06
2023-02-04T01:17:04.394Z,5.06
2023-02-04T01:18:04.319Z,5.06
2023-02-04T01:19:04.184Z,5.06
2023-02-04T01:20:04.158Z,5.06
2023-02-04T01:21:04.066Z,5.06
2023-02-04T01:22:04.162Z,5.06
2023-02-04T01:23:04.147Z,5.06
2023-02-04T01:24:04.171Z,5.06
2023-02-04T01:25:04.155Z,5.00
2023-02-04T01:26:04.000Z,5.06
2023-02-04T01:27:04.081Z,5.06
2023-02-04T01:28:04.157Z,5.06
2023-02-04T01:29:03.991Z,5.00
2023-02-04T01:30:04.002Z,5.00
2023-02-04T01:31:03.950Z,5.00
2023-02-04T01:32:03.970Z,5.00
2023-02-04T01:33:03.843Z,5.00
2023-02-04T01:34:03.924Z,5.00
2023-02-04T01:35:03.909Z,5.00
2023-02-04T01:36:03.941Z,5.00
2023-02-04T01:37:03.757Z,4.94
2023-02-04T01:38:03.823Z,5.00
2023-02-04T01:39:03.832Z,4.94
2023-02-04T01:40:03.754Z,4.94
2023-02-04T01:41:03.750Z,4.94
2023-02-04T01:42:03.754Z,4.94
2023-02-04T01:43:03.835Z,4.94
2023-02-04T01:44:03.778Z,4.94
2023-02-04T01:45:03.679Z,4.81
2023-02-04T01:46:03.705Z,4.75
2023-02-04T01:47:03.674Z,4.62
2023-02-04T01:48:03.508Z,4.56
2023-02-04T01:49:04.497Z,4.50
2023-02-04T01:50:04.475Z,4.44
2023-02-04T01:51:04.475Z,4.38
2023-02-04T01:52:04.393Z,4.25
2023-02-04T01:53:04.393Z,4.19
2023-02-04T01:54:04.393Z,4.12
2023-02-04T01:55:04.480Z,4.06
2023-02-04T01:56:04.388Z,4.00
2023-02-04T01:57:04.390Z,3.94
2023-02-04T01:58:04.423Z,3.88
2023-02-04T01:59:04.393Z,3.81
2023-02-04T02:00:04.260Z,3.81
2023-02-04T02:01:04.264Z,3.75
2023-02-04T02:02:04.196Z,3.75
2023-02-04T02:03:04.239Z,3.75
2023-02-04T02:04:04.161Z,3.69
2023-02-04T02:05:04.325Z,3.62
2023-02-04T02:06:04.173Z,3.56
2023-02-04T02:07:04.109Z,3.56
2023-02-04T02:08:04.154Z,3.50
2023-02-04T02:09:04.150Z,3.50
2023-02-04T02:10:04.235Z,3.44
2023-02-04T02:11:04.175Z,3.44
2023-02-04T02:12:04.244Z,3.44
2023-02-04T02:13:04.239Z,3.38
2023-02-04T02:14:04.268Z,3.31
2023-02-04T02:15:04.233Z,3.31
2023-02-04T02:16:04.411Z,3.31
2023-02-04T02:17:04.392Z,3.31
2023-02-04T02:18:04.395Z,3.25
2023-02-04T02:19:04.482Z,3.25
2023-02-04T02:20:04.325Z,3.19
2023-02-04T02:21:04.320Z,3.19
2023-02-04T02:22:04.388Z,3.19
2023-02-04T02:23:04.479Z,3.12
2023-02-04T02:24:04.388Z,3.12
2023-02-04T02:25:04.387Z,3.06
2023-02-04T02:26:04.482Z,3.06
2023-02-04T02:27:04.388Z,3.06
2023-02-04T02:28:04.525Z,3.06
2023-02-04T02:29:04.472Z,3.00
2023-02-04T02:30:04.391Z,3.06
2023-02-04T02:31:04.574Z,3.06
2023-02-04T02:32:04.319Z,3.00
2023-02-04T02:33:04.436Z,3.00
2023-02-04T02:34:04.484Z,3.00
2023-02-04T02:35:04.321Z,3.00
2023-02-04T02:36:04.384Z,3.00
2023-02-04T02:37:04.318Z,2.94
2023-02-04T02:38:04.252Z,2.94
2023-02-04T02:39:04.232Z,2.94
2023-02-04T02:40:04.320Z,2.94
2023-02-04T02:41:04.307Z,2.88
2023-02-04T02:42:04.314Z,2.88
2023-02-04T02:43:04.264Z,2.88
2023-02-04T02:44:04.226Z,2.88
2023-02-04T02:45:04.317Z,2.88
2023-02-04T02:46:04.274Z,2.81
2023-02-04T02:47:04.242Z,2.81
2023-02-04T02:48:04.315Z,2.81
2023-02-04T02:49:04.231Z,2.81
2023-02-04T02:50:04.227Z,2.81
2023-02-04T02:51:04.303Z,2.81
2023-02-04T02:52:04.302Z,2.75
2023-02-04T02:53:04.277Z,2.75
2023-02-04T02:54:04.309Z,2.75
2023-02-04T02:55:04.144Z,2.75
2023-02-04T02:56:04.142Z,2.75
2023-02-04T02:57:04.086Z,2.75
2023-02-04T02:58:04.078Z,2.75
2023-02-04T02:59:03.979Z,2.75
2023-02-04T03:00:03.981Z,2.75
2023-02-04T03:01:04.029Z,2.75
2023-02-04T03:02:03.958Z,2.75
2023-02-04T03:03:03.905Z,2.75
2023-02-04T03:04:03.818Z,2.75
2023-02-04T03:05:03.900Z,2.75
2023-02-04T03:06:03.812Z,2.75
2023-02-04T03:07:03.948Z,2.75
2023-02-04T03:08:03.977Z,2.69
2023-02-04T03:09:03.931Z,2.75
2023-02-04T03:10:03.988Z,2.75
2023-02-04T03:11:03.673Z,2.69
2023-02-04T03:12:03.673Z,2.69
2023-02-04T03:13:03.680Z,2.69
2023-02-04T03:14:03.740Z,2.69
2023-02-04T03:15:03.740Z,2.69
2023-02-04T03:16:03.902Z,2.69
2023-02-04T03:17:03.825Z,2.69
2023-02-04T03:18:03.753Z,2.69
2023-02-04T03:19:03.744Z,2.69
2023-02-04T03:20:03.665Z,2.62
2023-02-04T03:21:03.744Z,2.69
2023-02-04T03:22:03.734Z,2.69
2023-02-04T03:23:03.747Z,2.62
2023-02-04T03:24:03.855Z,2.69
2023-02-04T03:25:03.747Z,2.69
2023-02-04T03:26:03.742Z,2.62
2023-02-04T03:27:03.832Z,2.62
2023-02-04T03:28:03.928Z,2.62
2023-02-04T03:29:03.905Z,2.62
2023-02-04T03:30:03.830Z,2.62
2023-02-04T03:31:03.912Z,2.62
2023-02-04T03:32:03.915Z,2.62
2023-02-04T03:33:03.911Z,2.62
2023-02-04T03:34:04.004Z,2.56
2023-02-04T03:35:03.989Z,2.50
2023-02-04T03:36:03.917Z,2.50
2023-02-04T03:37:03.989Z,2.50
2023-02-04T03:38:03.911Z,2.50
2023-02-04T03:39:03.998Z,2.50
2023-02-04T03:40:03.899Z,2.44
2023-02-04T03:41:03.992Z,2.44
2023-02-04T03:42:04.076Z,2.38
2023-02-04T03:43:03.908Z,2.38
2023-02-04T03:44:03.905Z,2.38
2023-02-04T03:45:03.988Z,2.38
2023-02-04T03:46:04.047Z,2.44
2023-02-04T03:47:03.824Z,2.38
2023-02-04T03:48:03.907Z,2.38
2023-02-04T03:49:03.917Z,2.38
2023-02-04T03:50:03.827Z,2.38
2023-02-04T03:51:03.752Z,2.38
2023-02-04T03:52:03.751Z,2.38
2023-02-04T03:53:03.690Z,2.38
2023-02-04T03:54:03.584Z,2.31
2023-02-04T03:55:03.594Z,2.31
2023-02-04T03:56:03.591Z,2.25
2023-02-04T03:57:03.598Z,2.25
2023-02-04T03:58:03.630Z,2.25
2023-02-04T03:59:03.600Z,2.19
2023-02-04T04:00:03.996Z,2.19
2023-02-04T04:01:04.161Z,2.19
2023-02-04T04:02:04.100Z,2.19
2023-02-04T04:03:04.164Z,2.19
2023-02-04T04:04:03.993Z,2.25
2023-02-04T04:05:03.995Z,2.25
2023-02-04T04:06:04.080Z,2.19
2023-02-04T04:07:04.078Z,2.19
2023-02-04T04:08:04.163Z,2.25
2023-02-04T04:09:04.078Z,2.25
2023-02-04T04:10:03.988Z,2.25
2023-02-04T04:11:04.073Z,2.25
2023-02-04T04:12:03.991Z,2.19
2023-02-04T04:13:04.077Z,2.19
2023-02-04T04:14:04.066Z,2.19
2023-02-04T04:15:04.072Z,2.19
2023-02-04T04:16:03.962Z,2.25
2023-02-04T04:17:03.995Z,2.19
2023-02-04T04:18:03.913Z,2.19
2023-02-04T04:19:03.987Z,2.19
2023-02-04T04:20:03.922Z,2.12
2023-02-04T04:21:03.906Z,2.19
2023-02-04T04:22:03.914Z,2.12
2023-02-04T04:23:03.994Z,2.12
2023-02-04T04:24:03.902Z,2.12
2023-02-04T04:25:03.829Z,2.12
2023-02-04T04:26:03.832Z,2.06
2023-02-04T04:27:03.920Z,2.06
2023-02-04T04:28:04.008Z,2.06
2023-02-04T04:29:03.830Z,2.06
2023-02-04T04:30:03.834Z,2.00
2023-02-04T04:31:03.966Z,2.00
2023-02-04T04:32:03.903Z,2.00
2023-02-04T04:33:03.911Z,2.00
2023-02-04T04:34:03.870Z,2.00
2023-02-04T04:35:03.781Z,2.00
2023-02-04T04:36:03.816Z,2.00
2023-02-04T04:37:03.831Z,1.94
2023-02-04T04:38:03.924Z,1.94
2023-02-04T04:39:03.822Z,1.94
2023-02-04T04:40:03.918Z,1.94
2023-02-04T04:41:03.983Z,1.94
2023-02-04T04:42:04.148Z,1.94
2023-02-04T04:43:03.987Z,1.94
2023-02-04T04:44:04.075Z,1.94
2023-02-04T04:45:03.922Z,1.94
2023-02-04T04:46:04.006Z,1.94
2023-02-04T04:47:03.824Z,1.94
2023-02-04T04:48:03.908Z,1.94
2023-02-04T04:49:03.905Z,1.94
2023-02-04T04:50:03.906Z,1.94
2023-02-04T04:51:03.829Z,2.00
2023-02-04T04:52:03.825Z,1.94
2023-02-04T04:53:03.824Z,1.94
2023-02-04T04:54:03.966Z,2.00
2023-02-04T04:55:03.820Z,2.00
2023-02-04T04:56:03.728Z,2.00
2023-02-04T04:57:03.823Z,1.94
2023-02-04T04:58:03.828Z,1.94
2023-02-04T04:59:04.147Z,2.00
2023-02-04T05:00:04.077Z,2.06
2023-02-04T05:01:04.109Z,2.06
2023-02-04T05:02:04.069Z,2.00
2023-02-04T05:03:04.108Z,2.00
2023-02-04T05:04:04.148Z,2.00
2023-02-04T05:05:04.111Z,2.00
2023-02-04T05:06:04.058Z,2.00
2023-02-04T05:07:04.065Z,2.00
2023-02-04T05:08:04.070Z,2.00
2023-02-04T05:09:04.065Z,2.06
2023-02-04T05:10:04.062Z,2.06
2023-02-04T05:11:03.991Z,2.06
2023-02-04T05:12:03.998Z,2.00
2023-02-04T05:13:03.981Z,2.06
2023-02-04T05:14:03.983Z,2.06
2023-02-04T05:15:04.142Z,2.06
2023-02-04T05:16:04.215Z,2.06
2023-02-04T05:17:04.180Z,2.06
2023-02-04T05:18:04.091Z,2.06
2023-02-04T05:19:04.068Z,2.06
2023-02-04T05:20:04.040Z,2.06
2023-02-04T05:21:03.988Z,2.06
2023-02-04T05:22:04.005Z,2.06
2023-02-04T05:23:05.585Z,2.06
2023-02-04T05:24:03.830Z,2.06
2023-02-04T05:25:04.108Z,2.06
2023-02-04T05:26:03.824Z,2.12
2023-02-04T05:27:03.916Z,2.12
2023-02-04T05:28:03.903Z,2.12
2023-02-04T05:29:03.855Z,2.06
2023-02-04T05:30:03.792Z,2.06
2023-02-04T05:31:03.782Z,2.06
2023-02-04T05:32:03.818Z,2.06
2023-02-04T05:33:03.833Z,2.06
2023-02-04T05:34:03.782Z,2.06
2023-02-04T05:35:05.505Z,2.06
2023-02-04T05:36:03.664Z,2.06
2023-02-04T05:37:03.833Z,2.12
2023-02-04T05:38:03.819Z,2.12
2023-02-04T05:39:04.758Z,2.06
2023-02-04T05:40:03.750Z,2.06
2023-02-04T05:41:03.824Z,2.06
2023-02-04T05:42:03.755Z,2.06
2023-02-04T05:43:04.380Z,2.06
2023-02-04T05:44:03.592Z,2.06
2023-02-04T05:45:04.392Z,2.06
2023-02-04T05:46:03.585Z,2.06
2023-02-04T05:47:04.482Z,2.06
2023-02-04T05:48:03.507Z,2.06
2023-02-04T05:49:03.518Z,2.12
2023-02-04T05:50:03.512Z,2.12
2023-02-04T05:51:03.598Z,2.12
2023-02-04T05:52:03.676Z,2.06
2023-02-04T05:53:03.589Z,2.06
2023-02-04T05:54:03.674Z,2.06
2023-02-04T05:55:03.584Z,2.06
2023-02-04T05:56:03.620Z,2.06
2023-02-04T05:57:03.592Z,2.06
2023-02-04T05:58:03.585Z,2.06
2023-02-04T05:59:03.516Z,2.06
2023-02-04T06:00:03.596Z,2.06
2023-02-04T06:01:03.697Z,2.12
2023-02-04T06:02:03.583Z,2.06
2023-02-04T06:03:03.536Z,2.06
2023-02-04T06:04:04.493Z,2.06
2023-02-04T06:05:04.380Z,2.06
2023-02-04T06:06:03.512Z,2.06
2023-02-04T06:07:04.389Z,2.06
2023-02-04T06:08:04.405Z,2.06
2023-02-04T06:09:04.396Z,2.06
2023-02-04T06:10:04.309Z,2.06
2023-02-04T06:11:04.328Z,2.06
2023-02-04T06:12:04.384Z,2.06
2023-02-04T06:13:04.315Z,2.00
2023-02-04T06:14:04.319Z,2.00
2023-02-04T06:15:04.223Z,2.00
2023-02-04T06:16:04.326Z,2.00
2023-02-04T06:17:04.303Z,1.94
2023-02-04T06:18:04.306Z,1.94
2023-02-04T06:19:04.232Z,1.94
2023-02-04T06:20:04.224Z,1.94
2023-02-04T06:21:04.061Z,2.00
2023-02-04T06:22:04.076Z,2.00
2023-02-04T06:23:04.011Z,2.00
2023-02-04T06:24:05.408Z,2.00
2023-02-04T06:25:03.985Z,2.00
2023-02-04T06:26:04.067Z,1.94
2023-02-04T06:27:04.138Z,1.94
2023-02-04T06:28:04.265Z,1.94
2023-02-04T06:29:04.224Z,1.94
2023-02-04T06:30:04.146Z,1.94
2023-02-04T06:31:04.301Z,1.94
2023-02-04T06:32:04.235Z,1.94
2023-02-04T06:33:04.308Z,1.94
2023-02-04T06:34:04.393Z,1.88
2023-02-04T06:35:04.301Z,1.94
2023-02-04T06:36:04.458Z,1.94
2023-02-04T06:37:04.470Z,1.94
2023-02-04T06:38:04.393Z,1.94
2023-02-04T06:39:04.472Z,1.88
2023-02-04T06:40:04.475Z,1.88
2023-02-04T06:41:04.463Z,1.88
2023-02-04T06:42:04.478Z,1.88
2023-02-04T06:43:04.597Z,1.88
2023-02-04T06:44:04.376Z,1.88
2023-02-04T06:45:04.470Z,1.88
2023-02-04T06:46:04.503Z,1.81
2023-02-04T06:47:04.374Z,1.81
2023-02-04T06:48:03.441Z,1.81
2023-02-04T06:49:04.383Z,1.81
2023-02-04T06:50:03.501Z,1.75
2023-02-04T06:51:03.584Z,1.75
2023-02-04T06:52:03.689Z,1.75
2023-02-04T06:53:03.588Z,1.75
2023-02-04T06:54:03.500Z,1.69
2023-02-04T06:55:03.584Z,1.69
2023-02-04T06:56:03.606Z,1.69
2023-02-04T06:57:03.668Z,1.69
2023-02-04T06:58:03.586Z,1.69
2023-02-04T06:59:03.601Z,1.69
2023-02-04T07:00:03.631Z,1.69
2023-02-04T07:01:03.689Z,1.62
2023-02-04T07:02:03.675Z,1.62
2023-02-04T07:03:03.755Z,1.62
2023-02-04T07:04:03.753Z,1.62
2023-02-04T07:05:03.904Z,1.56
2023-02-04T07:06:03.753Z,1.56
2023-02-04T07:07:03.852Z,1.62
2023-02-04T07:08:03.920Z,1.56
2023-02-04T07:09:03.824Z,1.56
2023-02-04T07:10:03.824Z,1.56
2023-02-04T07:11:03.751Z,1.56
2023-02-04T07:12:03.598Z,1.50
2023-02-04T07:13:03.606Z,1.50
2023-02-04T07:14:03.623Z,1.50
2023-02-04T07:15:03.679Z,1.50
2023-02-04T07:16:03.768Z,1.44
2023-02-04T07:17:03.684Z,1.44
2023-02-04T07:18:03.583Z,1.44
2023-02-04T07:19:03.682Z,1.44
2023-02-04T07:20:04.485Z,1.44
2023-02-04T07:21:04.394Z,1.44
2023-02-04T07:22:04.469Z,1.44
2023-02-04T07:23:04.316Z,1.44
2023-02-04T07:24:04.476Z,1.44
2023-02-04T07:25:04.310Z,1.44
2023-02-04T07:26:04.305Z,1.44
2023-02-04T07:27:04.317Z,1.44
2023-02-04T07:28:04.252Z,1.44
2023-02-04T07:29:04.949Z,1.44
2023-02-04T07:30:04.465Z,1.44
2023-02-04T07:31:03.778Z,1.44
2023-02-04T07:32:03.704Z,1.44
2023-02-04T07:33:03.505Z,1.44
2023-02-04T07:34:03.513Z,1.44
2023-02-04T07:35:03.680Z,1.44
2023-02-04T07:36:03.671Z,1.44
2023-02-04T07:37:03.630Z,1.50
2023-02-04T07:38:03.594Z,1.50
2023-02-04T07:39:03.510Z,1.50
2023-02-04T07:40:04.473Z,1.50
2023-02-04T07:41:03.533Z,1.50
2023-02-04T07:42:03.615Z,1.50
2023-02-04T07:43:03.685Z,1.50
2023-02-04T07:44:03.747Z,1.50
2023-02-04T07:45:03.654Z,1.56
2023-02-04T07:46:03.799Z,1.56
2023-02-04T07:47:03.578Z,1.56
2023-02-04T07:48:03.584Z,1.56
2023-02-04T07:49:03.753Z,1.56
2023-02-04T07:50:03.785Z,1.56
2023-02-04T07:51:03.668Z,1.62
2023-02-04T07:52:03.662Z,1.62
2023-02-04T07:53:03.577Z,1.62
2023-02-04T07:54:03.661Z,1.62
2023-02-04T07:55:03.667Z,1.62
2023-02-04T07:56:03.575Z,1.62
2023-02-04T07:57:03.658Z,1.69
2023-02-04T07:58:03.660Z,1.69
2023-02-04T07:59:03.582Z,1.69
2023-02-04T08:00:03.619Z,1.69
2023-02-04T08:01:03.572Z,1.69
2023-02-04T08:02:03.655Z,1.69
2023-02-04T08:03:03.700Z,1.69
2023-02-04T08:04:03.569Z,1.75
2023-02-04T08:05:03.573Z,1.75
2023-02-04T08:06:03.577Z,1.75
2023-02-04T08:07:03.486Z,1.75
2023-02-04T08:08:03.499Z,1.75
2023-02-04T08:09:03.494Z,1.75
2023-02-04T08:10:03.592Z,1.75
2023-02-04T08:11:03.493Z,1.75
2023-02-04T08:12:03.582Z,1.75
2023-02-04T08:13:03.498Z,1.81
2023-02-04T08:14:04.455Z,1.81
2023-02-04T08:15:04.461Z,1.81
2023-02-04T08:16:03.643Z,1.81
2023-02-04T08:17:03.573Z,1.81
2023-02-04T08:18:03.496Z,1.81
2023-02-04T08:19:04.454Z,2.00
2023-02-04T08:20:03.591Z,2.00
2023-02-04T08:21:04.453Z,2.00
2023-02-04T08:22:04.471Z,2.00
2023-02-04T08:23:04.375Z,2.00
2023-02-04T08:24:04.209Z,2.00
2023-02-04T08:25:04.287Z,2.06
2023-02-04T08:26:04.296Z,2.06
2023-02-04T08:27:04.280Z,2.06
2023-02-04T08:28:04.340Z,2.12
2023-02-04T08:29:04.288Z,2.12
2023-02-04T08:30:04.421Z,2.12
2023-02-04T08:31:04.483Z,2.19
2023-02-04T08:32:04.320Z,2.19
2023-02-04T08:33:04.296Z,2.19
2023-02-04T08:34:04.224Z,2.19
2023-02-04T08:35:06.375Z,2.19
2023-02-04T08:36:04.139Z,2.25
2023-02-04T08:37:04.138Z,2.25
2023-02-04T08:38:04.048Z,2.31
2023-02-04T08:39:03.963Z,2.31
2023-02-04T08:40:03.975Z,2.31
2023-02-04T08:41:03.916Z,2.38
2023-02-04T08:42:03.883Z,2.38
2023-02-04T08:43:04.007Z,2.38
2023-02-04T08:44:04.132Z,2.38
2023-02-04T08:45:04.046Z,2.38
2023-02-04T08:46:04.104Z,2.38
2023-02-04T08:47:04.056Z,2.38
2023-02-04T08:48:03.901Z,2.44
2023-02-04T08:49:04.057Z,2.50
2023-02-04T08:50:04.152Z,2.50
2023-02-04T08:51:04.320Z,2.56
2023-02-04T08:52:04.133Z,2.56
2023-02-04T08:53:04.149Z,2.56
2023-02-04T08:54:04.221Z,2.50
2023-02-04T08:55:04.148Z,2.56
2023-02-04T08:56:04.235Z,2.56
2023-02-04T08:57:04.280Z,2.56
2023-02-04T08:58:04.151Z,2.56
2023-02-04T08:59:04.151Z,2.56
2023-02-04T09:00:04.328Z,2.56
2023-02-04T09:01:04.257Z,2.56
2023-02-04T09:02:04.572Z,2.62
2023-02-04T09:03:04.314Z,2.56
2023-02-04T09:04:04.235Z,2.62
2023-02-04T09:05:04.232Z,2.56
2023-02-04T09:06:04.157Z,2.56
2023-02-04T09:07:04.355Z,2.56
2023-02-04T09:08:04.324Z,2.50
2023-02-04T09:09:04.160Z,2.50
2023-02-04T09:10:04.351Z,2.44
2023-02-04T09:11:04.082Z,2.44
2023-02-04T09:12:04.152Z,2.50
2023-02-04T09:13:04.153Z,2.50
2023-02-04T09:14:04.171Z,2.50
2023-02-04T09:15:04.073Z,2.56
2023-02-04T09:16:04.209Z,2.56
2023-02-04T09:17:04.250Z,2.56
2023-02-04T09:18:04.085Z,2.56
2023-02-04T09:19:04.168Z,2.62
2023-02-04T09:20:04.244Z,2.56
2023-02-04T09:21:04.242Z,2.56
2023-02-04T09:22:04.178Z,2.56
2023-02-04T09:23:04.239Z,2.56
2023-02-04T09:24:04.238Z,2.56
2023-02-04T09:25:04.246Z,2.56
2023-02-04T09:26:04.329Z,2.62
2023-02-04T09:27:04.257Z,2.62
2023-02-04T09:28:04.194Z,2.56
2023-02-04T09:29:04.182Z,2.56
2023-02-04T09:30:04.090Z,2.62
2023-02-04T09:31:04.568Z,2.62
2023-02-04T09:32:04.223Z,2.62
2023-02-04T09:33:04.085Z,2.62
2023-02-04T09:34:04.175Z,2.62
2023-02-04T09:35:04.257Z,2.56
2023-02-04T09:36:04.265Z,2.56
2023-02-04T09:37:04.007Z,2.56
2023-02-04T09:38:04.021Z,2.56
2023-02-04T09:39:03.939Z,2.62
2023-02-04T09:40:04.003Z,2.62
2023-02-04T09:41:03.924Z,2.62
2023-02-04T09:42:04.008Z,2.69
2023-02-04T09:43:04.180Z,2.69
2023-02-04T09:44:04.106Z,2.69
2023-02-04T09:45:04.167Z,2.69
2023-02-04T09:46:04.254Z,2.69
2023-02-04T09:47:04.169Z,2.81
2023-02-04T09:48:04.277Z,2.88
2023-02-04T09:49:04.174Z,2.88
2023-02-04T09:50:04.246Z,2.88
2023-02-04T09:51:04.341Z,2.94
2023-02-04T09:52:04.425Z,2.94
2023-02-04T09:53:04.354Z,3.00
2023-02-04T09:54:04.412Z,3.06
2023-02-04T09:55:04.420Z,3.12
2023-02-04T09:56:04.323Z,3.12
2023-02-04T09:57:04.414Z,3.19
2023-02-04T09:58:04.402Z,3.25
2023-02-04T09:59:04.403Z,3.31
2023-02-04T10:00:04.404Z,3.31
2023-02-04T10:01:04.480Z,3.38
2023-02-04T10:02:04.482Z,3.44
2023-02-04T10:03:04.473Z,3.44
2023-02-04T10:04:03.599Z,3.50
2023-02-04T10:05:03.594Z,3.50
2023-02-04T10:06:03.583Z,3.50
2023-02-04T10:07:03.508Z,3.44
2023-02-04T10:08:04.480Z,3.50
2023-02-04T10:09:04.476Z,3.50
2023-02-04T10:10:03.517Z,3.50
2023-02-04T10:11:03.524Z,3.44
2023-02-04T10:12:03.450Z,3.44
2023-02-04T10:13:04.478Z,3.44
2023-02-04T10:14:04.486Z,3.50
2023-02-04T10:15:04.401Z,3.44
2023-02-04T10:16:04.459Z,3.44
2023-02-04T10:17:04.499Z,3.44
2023-02-04T10:18:03.749Z,3.44
2023-02-04T10:19:03.687Z,3.44
2023-02-04T10:20:03.591Z,3.44
2023-02-04T10:21:03.584Z,3.44
2023-02-04T10:22:03.591Z,3.38
2023-02-04T10:23:03.496Z,3.38
2023-02-04T10:24:03.587Z,3.38
2023-02-04T10:25:03.588Z,3.38
2023-02-04T10:26:03.420Z,3.38
2023-02-04T10:27:03.600Z,3.38
2023-02-04T10:28:03.706Z,3.38
2023-02-04T10:29:03.590Z,3.38
2023-02-04T10:30:03.508Z,3.38
2023-02-04T10:31:03.705Z,3.38
2023-02-04T10:32:04.305Z,3.38
2023-02-04T10:33:04.387Z,3.38
2023-02-04T10:34:04.381Z,3.38
2023-02-04T10:35:04.309Z,3.38
2023-02-04T10:36:04.307Z,3.44
2023-02-04T10:37:04.428Z,3.38
2023-02-04T10:38:04.384Z,3.38
2023-02-04T10:39:04.472Z,3.38
2023-02-04T10:40:04.387Z,3.31
2023-02-04T10:41:04.500Z,3.31
2023-02-04T10:42:04.387Z,3.31
2023-02-04T10:43:03.510Z,3.31
2023-02-04T10:44:03.986Z,3.31
2023-02-04T10:45:03.993Z,3.31
2023-02-04T10:46:04.094Z,3.38
2023-02-04T10:47:04.091Z,3.38
2023-02-04T10:48:03.990Z,3.38
2023-02-04T10:49:04.069Z,3.38
2023-02-04T10:50:04.069Z,3.38
2023-02-04T10:51:04.163Z,3.44
2023-02-04T10:52:04.324Z,3.50
2023-02-04T10:53:04.234Z,3.50
2023-02-04T10:54:04.318Z,3.50
2023-02-04T10:55:04.394Z,3.56
2023-02-04T10:56:04.316Z,3.62
2023-02-04T10:57:04.390Z,3.62
2023-02-04T10:58:04.394Z,3.62
2023-02-04T10:59:04.394Z,3.62
2023-02-04T11:00:04.491Z,3.62
2023-02-04T11:01:04.494Z,3.62
2023-02-04T11:02:04.482Z,3.62
2023-02-04T11:03:03.517Z,3.62
2023-02-04T11:04:03.512Z,3.62
2023-02-04T11:05:03.708Z,3.62
2023-02-04T11:06:03.754Z,3.69
2023-02-04T11:07:03.675Z,3.69
2023-02-04T11:08:03.595Z,3.69
2023-02-04T11:09:03.600Z,3.69
2023-02-04T11:10:03.514Z,3.75
2023-02-04T11:11:03.509Z,3.75
2023-02-04T11:12:03.510Z,3.81
2023-02-04T11:13:03.510Z,3.81
2023-02-04T11:14:03.667Z,3.88
2023-02-04T11:15:03.603Z,3.88
2023-02-04T11:16:03.663Z,3.94
2023-02-04T11:17:03.766Z,3.94
2023-02-04T11:18:03.696Z,3.94
2023-02-04T11:19:03.759Z,4.00
2023-02-04T11:20:03.837Z,4.00
2023-02-04T11:21:03.837Z,4.00
2023-02-04T11:22:03.929Z,4.00
2023-02-04T11:23:03.746Z,4.06
2023-02-04T11:24:03.837Z,4.06
2023-02-04T11:25:03.835Z,4.06
2023-02-04T11:26:03.838Z,4.06
2023-02-04T11:27:03.755Z,4.06
2023-02-04T11:28:03.879Z,4.12
2023-02-04T11:29:03.994Z,4.12
2023-02-04T11:30:03.839Z,4.12
2023-02-04T11:31:04.101Z,4.12
2023-02-04T11:32:04.013Z,4.19
2023-02-04T11:33:04.074Z,4.12
2023-02-04T11:34:03.995Z,4.12
2023-02-04T11:35:04.070Z,4.12
2023-02-04T11:36:04.070Z,4.12
2023-02-04T11:37:04.156Z,4.12
2023-02-04T11:38:04.073Z,4.06
2023-02-04T11:39:03.986Z,4.12
2023-02-04T11:40:04.146Z,4.06
2023-02-04T11:41:04.153Z,4.06
2023-02-04T11:42:04.146Z,4.00
2023-02-04T11:43:04.228Z,4.00
2023-02-04T11:44:04.236Z,3.94
2023-02-04T11:45:04.217Z,3.94
2023-02-04T11:46:04.263Z,3.94
2023-02-04T11:47:04.312Z,3.94
2023-02-04T11:48:04.399Z,3.94
2023-02-04T11:49:04.395Z,3.94
2023-02-04T11:50:03.609Z,3.88
2023-02-04T11:51:03.596Z,3.88
2023-02-04T11:52:03.593Z,3.88
2023-02-04T11:53:04.155Z,3.88
2023-02-04T11:54:04.070Z,3.88
2023-02-04T11:55:04.073Z,3.88
2023-02-04T11:56:03.995Z,3.88
2023-02-04T11:57:04.071Z,3.88
2023-02-04T11:58:03.990Z,3.88
2023-02-04T11:59:03.989Z,3.88
2023-02-04T12:00:03.939Z,3.88
2023-02-04T12:01:03.834Z,3.88
2023-02-04T12:02:03.832Z,3.88
2023-02-04T12:03:04.000Z,3.88
2023-02-04T12:04:03.895Z,3.94
2023-02-04T12:05:03.925Z,3.94
2023-02-04T12:06:03.911Z,3.94
2023-02-04T12:07:03.905Z,3.94
2023-02-04T12:08:03.918Z,4.00
2023-02-04T12:09:03.843Z,4.00
2023-02-04T12:10:03.913Z,4.06
2023-02-04T12:11:04.015Z,4.06
2023-02-04T12:12:04.077Z,4.06
2023-02-04T12:13:04.082Z,4.06
2023-02-04T12:14:04.080Z,4.06
2023-02-04T12:15:05.047Z,4.12
2023-02-04T12:16:05.034Z,4.12
2023-02-04T12:17:04.149Z,4.12
2023-02-04T12:18:03.981Z,4.12
2023-02-04T12:19:03.998Z,4.12
2023-02-04T12:20:04.162Z,4.19
2023-02-04T12:21:04.244Z,4.19
2023-02-04T12:22:04.162Z,4.19
2023-02-04T12:23:04.068Z,4.19
2023-02-04T12:24:04.074Z,4.25
2023-02-04T12:25:03.908Z,4.25
2023-02-04T12:26:03.919Z,4.25
2023-02-04T12:27:03.913Z,4.25
2023-02-04T12:28:03.938Z,4.31
2023-02-04T12:29:03.919Z,4.31
2023-02-04T12:30:03.836Z,4.31
2023-02-04T12:31:04.044Z,4.38
2023-02-04T12:32:03.968Z,4.38
2023-02-04T12:33:03.752Z,4.38
2023-02-04T12:34:03.912Z,4.38
2023-02-04T12:35:03.905Z,4.44
2023-02-04T12:36:03.987Z,4.44
2023-02-04T12:37:04.064Z,4.44
2023-02-04T12:38:04.164Z,4.50
2023-02-04T12:39:04.157Z,4.50
2023-02-04T12:40:04.247Z,4.56
2023-02-04T12:41:04.067Z,4.50
2023-02-04T12:42:04.067Z,4.56
2023-02-04T12:43:04.167Z,4.56
2023-02-04T12:44:03.501Z,4.62
2023-02-04T12:45:03.585Z,4.56
2023-02-04T12:46:03.664Z,4.62
2023-02-04T12:47:03.658Z,4.62
2023-02-04T12:48:03.800Z,4.62
2023-02-04T12:49:03.739Z,4.69
2023-02-04T12:50:03.841Z,4.69
2023-02-04T12:51:03.760Z,4.69
2023-02-04T12:52:03.833Z,4.75
2023-02-04T12:53:03.833Z,4.75
2023-02-04T12:54:03.842Z,4.75
2023-02-04T12:55:03.746Z,4.69
2023-02-04T12:56:03.917Z,4.75
2023-02-04T12:57:03.830Z,4.69
2023-02-04T12:58:03.948Z,4.69
2023-02-04T12:59:03.826Z,4.69
2023-02-04T13:00:03.837Z,4.69
2023-02-04T13:01:04.466Z,4.69
2023-02-04T13:02:03.736Z,4.69
2023-02-04T13:03:03.760Z,4.62
2023-02-04T13:04:03.661Z,4.62
2023-02-04T13:05:03.743Z,4.62
2023-02-04T13:06:03.830Z,4.62
2023-02-04T13:07:03.839Z,4.56
2023-02-04T13:08:03.659Z,4.56
2023-02-04T13:09:03.827Z,4.56
2023-02-04T13:10:03.830Z,4.50
2023-02-04T13:11:03.825Z,4.50
2023-02-04T13:12:03.766Z,4.44
2023-02-04T13:13:04.626Z,4.44
2023-02-04T13:14:03.914Z,4.44
2023-02-04T13:15:03.991Z,4.44
2023-02-04T13:16:04.134Z,4.44
2023-02-04T13:17:03.980Z,4.44
2023-02-04T13:18:04.050Z,4.44